Time;durP1;ratioP1;P1;durP2;ratioP2;P2;SDS_P1;SDS_P2;PMS_P1;PMS_P2;Temp;Humidity;BMP_temperature;BMP_pressure;BME280_temperature;BME280_humidity;BME280_pressure;Samples;Min_cycle;Max_cycle;Signal;HPM_P1;HPM_P2
2023/02/12 00:00:00;;;;;;;;;;;;;;;6.52;85.88;102885.31;4103764;28;20017;-65
2023/02/12 00:02:02;;;;;;;;;;;;;;;6.53;85.51;102878.09;4105460;28;20072;-64
2023/02/12 00:04:04;;;;;;;;;;;;;;;6.53;85.86;102872.72;4106021;28;20021;-64
2023/02/12 00:06:07;;;;;;;;;;;;;;;6.53;85.73;102878.09;4122087;28;20444;-64
2023/02/12 00:08:10;;;;;;;;;;;;;;;6.53;85.52;102872.72;4107510;28;20373;-64
2023/02/12 00:10:13;;;;;;;;;;;;;;;6.54;85.64;102879.84;4107534;28;20025;-65
2023/02/12 00:12:15;;;;;;;;;;;;;;;6.53;85.75;102881.63;4108242;28;20095;-64
2023/02/12 00:14:17;;;;;;;;;;;;;;;6.54;85.58;102888.75;4106735;28;20037;-64
2023/02/12 00:16:20;;;;;;;;;;;;;;;6.53;85.78;102891.53;4107929;28;20041;-64
2023/02/12 00:18:22;;;;;;;;;;;;;;;6.54;85.50;102891.44;4107490;28;20025;-65
2023/02/12 00:20:24;;;;;;;;;;;;;;;6.56;85.60;102899.38;4107383;28;20018;-64
2023/02/12 00:22:26;;;;;;;;;;;;;;;6.55;85.74;102900.31;4107718;28;20398;-63
2023/02/12 00:24:28;;;;;;;;;;;;;;;6.55;85.82;102894.97;4107099;28;20485;-65
2023/02/12 00:26:32;;;;;;;;;;;;;;;6.55;85.78;102903.00;4108076;28;20447;-64
2023/02/12 00:28:34;;;;;;;;;;;;;;;6.55;85.75;102894.97;4106875;28;20053;-64
2023/02/12 00:30:36;;;;;;;;;;;;;;;6.56;85.74;102910.13;4106500;28;20026;-65
2023/02/12 00:32:38;;;;;;;;;;;;;;;6.55;85.67;102909.28;4106635;28;20026;-63
2023/02/12 00:34:42;;;;;;;;;;;;;;;6.54;85.79;102907.53;4107169;28;20041;-64
2023/02/12 00:36:44;;;;;;;;;;;;;;;6.54;85.95;102904.84;4106922;28;20025;-64
2023/02/12 00:38:46;;;;;;;;;;;;;;;6.55;85.66;102911.06;4108045;28;20021;-63
2023/02/12 00:40:48;;;;;;;;;;;;;;;6.53;85.76;102908.47;4104923;28;20009;-64
2023/02/12 00:42:51;;;;;;;;;;;;;;;6.53;85.90;102913.84;4122117;28;20032;-64
2023/02/12 00:44:53;;;;;;;;;;;;;;;6.53;85.85;102905.78;4106099;28;20021;-64
2023/02/12 00:46:56;;;;;;;;;;;;;;;6.54;85.96;102909.38;4105463;28;20354;-64
2023/02/12 00:48:58;;;;;;;;;;;;;;;6.53;85.77;102903.13;4107048;28;20024;-64
2023/02/12 00:51:00;;;;;;;;;;;;;;;6.53;85.84;102907.63;4117227;28;20028;-64
2023/02/12 00:53:03;;;;;;;;;;;;;;;6.53;86.03;102918.38;4106865;28;20448;-65
2023/02/12 00:55:05;;;;;;;;;;;;;;;6.51;85.88;102918.47;4107910;28;20017;-66
2023/02/12 00:57:08;;;;;;;;;;;;;;;6.51;85.84;102928.34;4107058;28;20457;-65
2023/02/12 00:59:11;;;;;;;;;;;;;;;6.51;85.70;102931.03;4107112;28;20029;-66
2023/02/12 01:01:13;;;;;;;;;;;;;;;6.51;85.71;102937.25;4106776;28;20053;-66
2023/02/12 01:03:15;;;;;;;;;;;;;;;6.50;86.09;102943.56;4121689;28;20367;-66
2023/02/12 01:05:18;;;;;;;;;;;;;;;6.49;85.67;102939.19;4106234;28;20083;-64
2023/02/12 01:07:20;;;;;;;;;;;;;;;6.51;85.67;102941.78;4106981;28;20017;-66
2023/02/12 01:09:22;;;;;;;;;;;;;;;6.49;86.10;102939.19;4106726;28;20045;-66
2023/02/12 01:11:24;;;;;;;;;;;;;;;6.49;85.71;102942.72;4106511;28;20024;-66
2023/02/12 01:13:29;;;;;;;;;;;;;;;6.49;85.94;102942.72;4120387;28;20515;-65
2023/02/12 01:15:32;;;;;;;;;;;;;;;6.50;85.66;102943.56;4088881;28;20849;-66
2023/02/12 01:17:34;;;;;;;;;;;;;;;6.49;85.54;102942.72;4106876;28;20022;-66
2023/02/12 01:19:36;;;;;;;;;;;;;;;6.51;85.72;102942.63;4120244;28;20016;-66
2023/02/12 01:21:38;;;;;;;;;;;;;;;6.51;85.90;102944.47;4106422;28;20017;-65
2023/02/12 01:23:40;;;;;;;;;;;;;;;6.51;86.07;102948.00;4106889;28;20029;-65
2023/02/12 01:25:42;;;;;;;;;;;;;;;6.52;85.71;102951.53;4106381;28;20012;-66
2023/02/12 01:27:44;;;;;;;;;;;;;;;6.52;85.78;102954.22;4106311;28;20017;-66
2023/02/12 01:29:46;;;;;;;;;;;;;;;6.52;85.95;102944.38;4107036;28;20480;-66
2023/02/12 01:31:50;;;;;;;;;;;;;;;6.52;86.00;102951.53;4106698;28;20005;-66
2023/02/12 01:33:53;;;;;;;;;;;;;;;6.52;85.71;102948.84;4107210;28;20044;-66
2023/02/12 01:35:56;;;;;;;;;;;;;;;6.52;85.92;102941.69;4106255;28;19930;-66
2023/02/12 01:37:58;;;;;;;;;;;;;;;6.40;85.57;102932.56;4120978;28;19986;-66
2023/02/12 01:40:01;;;;;;;;;;;;;;;6.52;85.94;102952.41;4106924;28;20016;-66
2023/02/12 01:42:04;;;;;;;;;;;;;;;6.53;85.68;102955.97;4106449;28;20380;-65
2023/02/12 01:44:08;;;;;;;;;;;;;;;6.53;85.90;102955.97;4106128;28;20031;-64
2023/02/12 01:46:11;;;;;;;;;;;;;;;6.51;85.68;102957.88;4105948;28;20008;-65
2023/02/12 01:48:15;;;;;;;;;;;;;;;6.52;85.95;102957.78;4106714;28;20463;-65
2023/02/12 01:50:17;;;;;;;;;;;;;;;6.53;85.57;102966.69;4103972;28;20026;-66
2023/02/12 01:52:20;;;;;;;;;;;;;;;6.53;85.63;102964.00;4106459;28;20029;-65
2023/02/12 01:54:24;;;;;;;;;;;;;;;6.53;85.98;102961.31;4104914;28;20460;-65
2023/02/12 01:56:26;;;;;;;;;;;;;;;6.53;85.61;102964.00;4105998;28;20037;-65
2023/02/12 01:58:29;;;;;;;;;;;;;;;6.52;85.89;102963.16;4105649;28;20037;-65
2023/02/12 02:00:32;;;;;;;;;;;;;;;6.53;85.88;102964.88;4104132;28;20009;-65
2023/02/12 02:02:34;;;;;;;;;;;;;;;6.53;85.82;102964.88;4106120;28;20041;-64
2023/02/12 02:04:38;;;;;;;;;;;;;;;6.53;86.01;102964.88;4120242;28;20471;-64
2023/02/12 02:06:43;;;;;;;;;;;;;;;6.54;85.66;102963.06;4105400;28;20053;-64
2023/02/12 02:08:45;;;;;;;;;;;;;;;6.52;85.99;102965.84;4104999;28;20016;-65
2023/02/12 02:10:47;;;;;;;;;;;;;;;6.53;85.60;102967.53;4089802;28;20049;-63
2023/02/12 02:15:08;;;;;;;;;;;;;;;6.55;85.65;102975.50;4104425;28;20021;-65
2023/02/12 02:17:16;;;;;;;;;;;;;;;6.55;85.93;102970.13;4106043;28;20029;-65
2023/02/12 02:19:21;;;;;;;;;;;;;;;6.55;85.90;102976.38;4105602;28;20033;-65
2023/02/12 02:21:47;;;;;;;;;;;;;;;6.55;85.63;102980.88;4106384;28;20024;-63
2023/02/12 02:23:56;;;;;;;;;;;;;;;6.55;85.84;102976.38;4091528;28;20020;-65
2023/02/12 02:26:14;;;;;;;;;;;;;;;6.55;85.55;102970.13;4104719;28;20384;-65
2023/02/12 02:28:22;;;;;;;;;;;;;;;6.55;85.55;102978.19;4106043;28;20013;-63
2023/02/12 02:30:44;;;;;;;;;;;;;;;6.55;85.50;102975.50;4106197;28;20344;-65
2023/02/12 02:32:50;;;;;;;;;;;;;;;6.54;85.88;102980.03;4106395;28;20045;-66
2023/02/12 02:34:54;;;;;;;;;;;;;;;6.55;85.88;102972.81;4105406;28;20341;-65
2023/02/12 02:36:58;;;;;;;;;;;;;;;6.54;85.92;102965.75;4105864;28;20009;-66
2023/02/12 02:39:00;;;;;;;;;;;;;;;6.54;85.91;102977.34;4105770;28;20518;-66
2023/02/12 02:41:04;;;;;;;;;;;;;;;6.55;85.98;102975.50;4105562;28;20022;-66
2023/02/12 02:43:07;;;;;;;;;;;;;;;6.55;85.80;102975.50;4106375;28;20026;-66
2023/02/12 02:45:11;;;;;;;;;;;;;;;6.54;85.88;102969.28;4105631;28;20424;-65
2023/02/12 02:47:13;;;;;;;;;;;;;;;6.52;85.72;102965.84;4119206;28;20014;-66
2023/02/12 02:49:17;;;;;;;;;;;;;;;6.53;85.77;102969.38;4105591;28;20021;-66
2023/02/12 02:51:20;;;;;;;;;;;;;;;6.54;85.88;102973.81;4105522;28;20013;-65
2023/02/12 02:53:22;;;;;;;;;;;;;;;6.54;85.84;102971.13;4104818;28;20013;-66
2023/02/12 02:55:25;;;;;;;;;;;;;;;6.54;85.95;102976.50;4105473;28;20351;-63
2023/02/12 02:57:28;;;;;;;;;;;;;;;6.54;85.77;102973.81;4105814;28;20029;-66
2023/02/12 02:59:33;;;;;;;;;;;;;;;6.53;85.85;102978.28;4105682;28;20036;-65
2023/02/12 03:01:36;;;;;;;;;;;;;;;6.52;85.89;102981.06;4119550;28;20017;-65
2023/02/12 03:03:40;;;;;;;;;;;;;;;6.52;86.13;102990.00;4105754;28;20375;-65
2023/02/12 03:05:43;;;;;;;;;;;;;;;6.52;85.79;102978.38;4105196;28;20029;-66
2023/02/12 03:07:47;;;;;;;;;;;;;;;6.51;86.29;102993.63;4106150;28;20030;-66
2023/02/12 03:09:49;;;;;;;;;;;;;;;6.51;85.92;102987.41;4105664;28;20017;-66
2023/02/12 03:11:51;;;;;;;;;;;;;;;6.50;85.82;102999.97;4105804;28;20030;-66
2023/02/12 03:13:55;;;;;;;;;;;;;;;6.50;85.92;102994.59;4104840;28;20018;-65
2023/02/12 03:15:58;;;;;;;;;;;;;;;6.50;86.16;103002.63;4105276;28;20037;-65
2023/02/12 03:18:00;;;;;;;;;;;;;;;6.49;85.93;103009.00;4105297;28;20056;-66
2023/02/12 03:20:03;;;;;;;;;;;;;;;6.49;85.98;103006.31;4105275;28;20017;-66
2023/02/12 03:22:07;;;;;;;;;;;;;;;6.44;85.94;102998.53;4105277;28;20021;-65
2023/02/12 03:24:11;;;;;;;;;;;;;;;6.48;86.09;103007.25;4105406;28;20134;-66
2023/02/12 03:26:14;;;;;;;;;;;;;;;6.48;86.10;103008.09;4105091;28;20021;-66
2023/02/12 03:28:16;;;;;;;;;;;;;;;6.49;86.09;103009.00;4107909;28;20016;-66
2023/02/12 03:30:20;;;;;;;;;;;;;;;6.50;86.19;103013.38;4107709;28;20428;-66
2023/02/12 03:32:24;;;;;;;;;;;;;;;6.51;86.11;103011.56;4108588;28;20034;-66
2023/02/12 03:34:28;;;;;;;;;;;;;;;6.51;86.25;103012.44;4108422;28;20024;-66
2023/02/12 03:36:34;;;;;;;;;;;;;;;6.51;85.90;103015.13;4105020;28;20028;-65
2023/02/12 03:38:38;;;;;;;;;;;;;;;6.50;86.04;103018.75;4108735;28;21034;-63
2023/02/12 03:40:41;;;;;;;;;;;;;;;6.49;86.01;103020.59;4107122;28;20414;-66
2023/02/12 03:42:45;;;;;;;;;;;;;;;6.51;85.96;103027.69;4108838;28;20026;-66
2023/02/12 03:44:48;;;;;;;;;;;;;;;6.50;86.14;103032.16;4108266;28;20021;-66
2023/02/12 03:46:52;;;;;;;;;;;;;;;6.49;86.08;103025.09;4107914;28;20017;-66
2023/02/12 03:48:56;;;;;;;;;;;;;;;6.49;86.09;103017.03;4108209;28;20021;-65
2023/02/12 03:50:59;;;;;;;;;;;;;;;6.48;86.05;103021.53;4107562;28;20017;-65
2023/02/12 03:53:01;;;;;;;;;;;;;;;6.49;86.11;103023.25;4107503;28;20028;-66
2023/02/12 03:55:04;;;;;;;;;;;;;;;6.49;85.97;103017.91;4107924;28;20005;-66
2023/02/12 03:57:07;;;;;;;;;;;;;;;6.49;86.41;103030.47;4105902;28;20036;-66
2023/02/12 03:59:09;;;;;;;;;;;;;;;6.49;86.36;103031.31;4108464;28;20383;-65
2023/02/12 04:01:11;;;;;;;;;;;;;;;6.48;86.03;103032.25;4107373;28;20484;-66
2023/02/12 04:03:13;;;;;;;;;;;;;;;6.48;86.31;103028.72;4108565;28;20013;-65
2023/02/12 04:05:16;;;;;;;;;;;;;;;6.48;86.40;103044.84;4107861;28;20802;-66
2023/02/12 04:07:18;;;;;;;;;;;;;;;6.47;86.08;103041.28;4108796;28;20460;-66
2023/02/12 04:09:20;;;;;;;;;;;;;;;6.48;86.37;103048.38;4107447;28;20017;-66
2023/02/12 04:11:26;;;;;;;;;;;;;;;6.48;86.09;103044.84;4108678;28;20029;-66
2023/02/12 04:13:29;;;;;;;;;;;;;;;6.49;85.95;103050.09;4108647;28;20431;-65
2023/02/12 04:15:36;;;;;;;;;;;;;;;6.49;86.35;103049.25;4107480;28;20405;-66
2023/02/12 04:17:40;;;;;;;;;;;;;;;6.48;86.23;103044.84;4107737;28;20022;-65
2023/02/12 04:19:46;;;;;;;;;;;;;;;6.47;86.26;103043.97;4107511;28;20329;-66
2023/02/12 04:21:51;;;;;;;;;;;;;;;6.47;86.00;103051.16;4108009;28;20024;-66
2023/02/12 04:23:56;;;;;;;;;;;;;;;6.48;86.10;103058.25;4107380;28;20357;-66
2023/02/12 04:26:00;;;;;;;;;;;;;;;6.47;86.03;103054.72;4107428;28;20030;-66
2023/02/12 04:28:06;;;;;;;;;;;;;;;6.48;86.49;103051.06;4108414;28;20034;-66
2023/02/12 04:30:10;;;;;;;;;;;;;;;6.47;86.29;103053.84;4106743;28;20014;-65
2023/02/12 04:32:12;;;;;;;;;;;;;;;6.46;86.57;103052.13;4107755;28;20021;-65
2023/02/12 04:34:15;;;;;;;;;;;;;;;6.46;86.45;103054.81;4106180;28;20038;-65
2023/02/12 04:36:18;;;;;;;;;;;;;;;6.45;86.45;103048.56;4106980;28;20546;-65
2023/02/12 04:38:21;;;;;;;;;;;;;;;6.46;86.70;103057.50;4106791;28;20017;-65
2023/02/12 04:40:23;;;;;;;;;;;;;;;6.44;86.88;103060.28;4106832;28;20017;-66
2023/02/12 04:42:25;;;;;;;;;;;;;;;6.43;86.76;103063.91;4107756;28;20038;-66
2023/02/12 04:44:29;;;;;;;;;;;;;;;6.44;86.61;103062.06;4106530;28;20448;-65
2023/02/12 04:46:31;;;;;;;;;;;;;;;6.43;86.70;103053.16;4107740;28;20017;-66
2023/02/12 04:48:33;;;;;;;;;;;;;;;6.43;87.00;103061.22;4107328;28;20085;-65
2023/02/12 04:50:38;;;;;;;;;;;;;;;6.42;86.78;103059.47;4106245;28;20021;-66
2023/02/12 04:52:40;;;;;;;;;;;;;;;6.42;87.18;103061.31;4106962;28;20057;-65
2023/02/12 04:54:42;;;;;;;;;;;;;;;6.42;87.06;103064.84;4106145;28;20021;-65
2023/02/12 04:56:44;;;;;;;;;;;;;;;6.41;87.18;103056.88;4107376;28;20026;-66
2023/02/12 04:58:46;;;;;;;;;;;;;;;6.41;87.48;103056.88;4107576;28;20029;-65
2023/02/12 05:00:49;;;;;;;;;;;;;;;6.40;87.12;103049.81;4105427;28;20009;-65
2023/02/12 05:02:51;;;;;;;;;;;;;;;6.40;87.33;103052.50;4106720;28;20030;-65
2023/02/12 05:04:54;;;;;;;;;;;;;;;6.40;87.81;103060.56;4106833;28;20021;-65
2023/02/12 05:06:55;;;;;;;;;;;;;;;6.39;87.45;103058.81;4121930;28;20020;-65
2023/02/12 05:08:57;;;;;;;;;;;;;;;6.38;87.82;103059.75;4107149;28;20029;-65
2023/02/12 05:11:03;;;;;;;;;;;;;;;6.38;87.83;103054.38;4106216;28;20021;-66
2023/02/12 05:13:05;;;;;;;;;;;;;;;6.37;88.04;103066.97;4107081;28;20017;-65
2023/02/12 05:15:08;;;;;;;;;;;;;;;6.37;88.31;103071.47;4104123;28;20053;-65
2023/02/12 05:17:11;;;;;;;;;;;;;;;6.35;88.53;103065.31;4107217;28;20005;-66
2023/02/12 05:19:13;;;;;;;;;;;;;;;6.34;88.31;103063.59;4106989;28;20064;-66
2023/02/12 05:21:15;;;;;;;;;;;;;;;6.33;88.43;103068.09;4105611;28;20591;-65
2023/02/12 05:23:17;;;;;;;;;;;;;;;6.31;88.40;103067.31;4104471;28;20021;-65
2023/02/12 05:25:19;;;;;;;;;;;;;;;6.29;89.06;103066.56;4103862;28;20801;-65
2023/02/12 05:27:21;;;;;;;;;;;;;;;6.29;89.08;103074.63;4105662;28;20025;-66
2023/02/12 05:29:23;;;;;;;;;;;;;;;6.28;89.27;103076.41;4106794;28;20464;-65
2023/02/12 05:31:25;;;;;;;;;;;;;;;6.26;89.18;103069.44;4106899;28;20114;-65
2023/02/12 05:33:28;;;;;;;;;;;;;;;6.24;89.54;103076.72;4106677;28;20393;-65
2023/02/12 05:35:30;;;;;;;;;;;;;;;6.22;89.43;103084.84;4106198;28;20013;-65
2023/02/12 05:37:35;;;;;;;;;;;;;;;6.23;89.52;103080.34;4106754;28;20345;-66
2023/02/12 05:39:37;;;;;;;;;;;;;;;6.24;89.75;103082.09;4106055;28;20013;-66
2023/02/12 05:41:39;;;;;;;;;;;;;;;6.25;89.73;103083.78;4106722;28;20025;-65
2023/02/12 05:43:41;;;;;;;;;;;;;;;6.25;89.70;103091.84;4106319;28;20027;-65
2023/02/12 05:45:43;;;;;;;;;;;;;;;6.24;89.89;103085.63;4106551;28;20023;-66
2023/02/12 05:47:45;;;;;;;;;;;;;;;6.26;89.74;103088.22;4106616;28;20025;-65
2023/02/12 05:49:49;;;;;;;;;;;;;;;6.25;90.09;103089.16;4104449;28;20361;-65
2023/02/12 05:51:51;;;;;;;;;;;;;;;6.26;90.08;103086.38;4105938;28;20345;-65
2023/02/12 05:53:53;;;;;;;;;;;;;;;6.27;89.82;103088.13;4106793;28;20045;-65
2023/02/12 05:55:55;;;;;;;;;;;;;;;6.26;89.59;103088.22;4106084;28;20029;-66
2023/02/12 05:57:57;;;;;;;;;;;;;;;6.27;89.79;103090.81;4105922;28;20367;-66
2023/02/12 05:59:59;;;;;;;;;;;;;;;6.28;89.15;103088.97;4107214;28;20025;-65
2023/02/12 06:02:01;;;;;;;;;;;;;;;6.28;89.28;103089.81;4107037;28;20016;-65
2023/02/12 06:04:04;;;;;;;;;;;;;;;6.29;88.96;103096.09;4106120;28;20029;-66
2023/02/12 06:06:07;;;;;;;;;;;;;;;6.30;89.11;103095.09;4105542;28;20013;-65
2023/02/12 06:08:09;;;;;;;;;;;;;;;6.30;89.22;103095.09;4105657;28;20369;-65
2023/02/12 06:10:11;;;;;;;;;;;;;;;6.31;89.09;103100.38;4105865;28;20045;-66
2023/02/12 06:12:13;;;;;;;;;;;;;;;6.32;89.19;103098.59;4105458;28;20018;-66
2023/02/12 06:14:16;;;;;;;;;;;;;;;6.31;89.17;103092.34;4105187;28;20017;-66
2023/02/12 06:16:18;;;;;;;;;;;;;;;6.32;89.66;103096.75;4106213;28;20026;-65
2023/02/12 06:18:20;;;;;;;;;;;;;;;6.31;89.38;103100.38;4106124;28;20456;-65
2023/02/12 06:20:22;;;;;;;;;;;;;;;6.30;89.17;103106.72;4105379;28;20024;-66
2023/02/12 06:22:27;;;;;;;;;;;;;;;6.31;89.46;103107.59;4105478;28;20472;-65
2023/02/12 06:24:29;;;;;;;;;;;;;;;6.30;89.60;103109.41;4105830;28;20057;-68
2023/02/12 06:26:31;;;;;;;;;;;;;;;6.30;89.20;103124.63;4105161;28;20397;-65
2023/02/12 06:28:33;;;;;;;;;;;;;;;6.30;89.02;103121.94;4105573;28;20038;-64
2023/02/12 06:30:35;;;;;;;;;;;;;;;6.31;88.88;103123.69;4105010;28;20029;-65
2023/02/12 06:32:37;;;;;;;;;;;;;;;6.32;88.90;103123.59;4104540;28;20014;-65
2023/02/12 06:34:39;;;;;;;;;;;;;;;6.34;88.88;103131.56;4105987;28;20022;-64
2023/02/12 06:36:41;;;;;;;;;;;;;;;6.33;88.74;103127.13;4105204;28;20025;-65
2023/02/12 06:38:45;;;;;;;;;;;;;;;6.34;88.74;103138.75;4104541;28;20044;-65
2023/02/12 06:40:46;;;;;;;;;;;;;;;6.33;88.24;103132.50;4103029;28;20463;-65
2023/02/12 06:42:49;;;;;;;;;;;;;;;6.36;88.60;103143.06;4105129;28;20025;-64
2023/02/12 06:44:51;;;;;;;;;;;;;;;6.36;88.39;103144.88;4105168;28;20448;-65
2023/02/12 06:46:53;;;;;;;;;;;;;;;6.37;88.00;103143.94;4103995;28;20037;-65
2023/02/12 06:48:55;;;;;;;;;;;;;;;6.38;88.22;103146.53;4105444;28;20053;-65
2023/02/12 06:50:57;;;;;;;;;;;;;;;6.38;88.41;103146.53;4105277;28;20025;-66
2023/02/12 06:52:59;;;;;;;;;;;;;;;6.38;88.26;103145.66;4104633;28;20017;-64
2023/02/12 06:55:02;;;;;;;;;;;;;;;6.38;88.28;103154.59;4104236;28;20017;-65
2023/02/12 06:57:04;;;;;;;;;;;;;;;6.39;88.24;103169.72;4105131;28;20107;-65
2023/02/12 06:59:06;;;;;;;;;;;;;;;6.40;88.45;103162.56;4103775;28;20021;-66
2023/02/12 07:01:11;;;;;;;;;;;;;;;6.39;88.26;103172.41;4104849;28;20058;-65
2023/02/12 07:03:13;;;;;;;;;;;;;;;6.40;88.38;103171.47;4103974;28;20357;-65
2023/02/12 07:05:15;;;;;;;;;;;;;;;6.39;88.32;103168.88;4104488;28;20356;-64
2023/02/12 07:07:17;;;;;;;;;;;;;;;6.40;88.24;103174.16;4102948;28;20033;-64
2023/02/12 07:09:19;;;;;;;;;;;;;;;6.39;88.28;103179.59;4103188;28;20019;-65
2023/02/12 07:11:24;;;;;;;;;;;;;;;6.40;88.27;103165.25;4103104;28;20373;-65
2023/02/12 07:13:26;;;;;;;;;;;;;;;6.40;88.36;103176.84;4104780;28;20013;-64
2023/02/12 07:15:28;;;;;;;;;;;;;;;6.40;88.78;103182.19;4103988;28;20017;-64
2023/02/12 07:17:30;;;;;;;;;;;;;;;6.40;88.18;103179.50;4103569;28;20053;-64
2023/02/12 07:19:32;;;;;;;;;;;;;;;6.40;88.17;103182.19;4101910;28;20017;-65
2023/02/12 07:21:34;;;;;;;;;;;;;;;6.42;88.21;103182.13;4102906;28;20025;-64
2023/02/12 07:23:36;;;;;;;;;;;;;;;6.43;88.10;103191.91;4104355;28;20041;-64
2023/02/12 07:25:38;;;;;;;;;;;;;;;6.43;88.19;103189.22;4104237;28;20017;-64
2023/02/12 07:27:41;;;;;;;;;;;;;;;6.42;88.07;103188.34;4104795;28;20104;-65
2023/02/12 07:29:43;;;;;;;;;;;;;;;6.43;88.22;103194.59;4104960;28;20025;-64
2023/02/12 07:31:45;;;;;;;;;;;;;;;6.44;88.06;103193.63;4104975;28;20320;-64
2023/02/12 07:33:47;;;;;;;;;;;;;;;6.43;87.83;103192.75;4104760;28;20016;-64
2023/02/12 07:35:49;;;;;;;;;;;;;;;6.45;87.87;103192.66;4103467;28;20025;-65
2023/02/12 07:37:51;;;;;;;;;;;;;;;6.45;87.80;103192.66;4105462;28;20026;-64
2023/02/12 07:39:53;;;;;;;;;;;;;;;6.45;87.39;103192.66;4103758;28;20037;-64
2023/02/12 07:41:56;;;;;;;;;;;;;;;6.46;87.34;103195.25;4118084;28;20024;-64
2023/02/12 07:43:59;;;;;;;;;;;;;;;6.46;87.59;103191.72;4102199;28;20025;-64
2023/02/12 07:46:08;;;;;;;;;;;;;;;6.46;87.56;103197.94;4102404;28;20013;-64
2023/02/12 07:48:11;;;;;;;;;;;;;;;6.47;87.61;103205.06;4103359;28;20025;-64
2023/02/12 07:50:13;;;;;;;;;;;;;;;6.40;87.70;103195.63;4102030;28;20041;-65
2023/02/12 07:52:15;;;;;;;;;;;;;;;6.47;87.46;103207.75;4104110;28;20369;-64
2023/02/12 07:54:17;;;;;;;;;;;;;;;6.47;87.22;103207.75;4100158;28;20046;-64
2023/02/12 07:56:20;;;;;;;;;;;;;;;6.47;87.29;103215.81;4099484;28;20028;-64
2023/02/12 07:58:22;;;;;;;;;;;;;;;6.48;87.19;103212.13;4101409;28;20029;-63
2023/02/12 08:00:25;;;;;;;;;;;;;;;6.48;87.42;103213.97;4100760;28;20361;-64
2023/02/12 08:02:27;;;;;;;;;;;;;;;6.48;87.05;103214.81;4100813;28;20013;-65
2023/02/12 08:04:29;;;;;;;;;;;;;;;6.49;87.25;103215.72;4102054;28;20017;-65
2023/02/12 08:06:32;;;;;;;;;;;;;;;6.50;87.22;103220.09;4103154;28;20021;-65
2023/02/12 08:08:34;;;;;;;;;;;;;;;6.50;87.06;103220.09;4103592;28;20024;-65
2023/02/12 08:10:36;;;;;;;;;;;;;;;6.50;86.72;103214.72;4101588;28;20016;-64
2023/02/12 08:12:38;;;;;;;;;;;;;;;6.51;86.87;103221.00;4102705;28;20015;-64
2023/02/12 08:14:40;;;;;;;;;;;;;;;6.50;86.72;103222.78;4104236;28;20037;-64
2023/02/12 08:16:44;;;;;;;;;;;;;;;6.52;87.01;103225.38;4106666;28;20447;-65
2023/02/12 08:18:46;;;;;;;;;;;;;;;6.52;87.03;103218.22;4107075;28;20394;-65
2023/02/12 08:20:48;;;;;;;;;;;;;;;6.52;86.93;103220.91;4104205;28;20024;-64
2023/02/12 08:22:50;;;;;;;;;;;;;;;6.53;87.09;103227.13;4103650;28;20376;-64
2023/02/12 08:24:52;;;;;;;;;;;;;;;6.53;87.01;103224.44;4105958;28;20033;-63
2023/02/12 08:26:54;;;;;;;;;;;;;;;6.52;87.25;103228.06;4105457;28;20013;-64
2023/02/12 08:28:58;;;;;;;;;;;;;;;6.51;87.35;103227.22;4105682;28;20488;-64
2023/02/12 08:31:01;;;;;;;;;;;;;;;6.50;87.01;103241.59;4103210;28;20160;-64
2023/02/12 08:33:04;;;;;;;;;;;;;;;6.50;86.81;103238.91;4106837;28;20021;-64
2023/02/12 08:35:06;;;;;;;;;;;;;;;6.52;86.61;103241.50;4104650;28;20030;-64
2023/02/12 08:37:08;;;;;;;;;;;;;;;6.51;86.92;103251.38;4105774;28;20093;-63
2023/02/12 08:39:10;;;;;;;;;;;;;;;6.52;87.01;103249.56;4119792;28;20563;-64
2023/02/12 08:41:13;;;;;;;;;;;;;;;6.52;86.94;103250.44;4103849;28;19926;-64
2023/02/12 08:43:15;;;;;;;;;;;;;;;6.52;86.57;103245.06;4105862;28;20410;-64
2023/02/12 08:45:17;;;;;;;;;;;;;;;6.53;86.63;103251.28;4105663;28;20020;-64
2023/02/12 08:47:19;;;;;;;;;;;;;;;6.53;86.83;103251.28;4105412;28;20025;-65
2023/02/12 08:49:26;;;;;;;;;;;;;;;6.53;86.71;103245.91;4105447;28;20013;-64
2023/02/12 08:51:30;;;;;;;;;;;;;;;6.54;86.80;103250.34;4104560;28;20025;-64
2023/02/12 08:53:32;;;;;;;;;;;;;;;6.53;86.73;103260.19;4105706;28;20021;-65
2023/02/12 08:55:34;;;;;;;;;;;;;;;6.54;86.56;103263.78;4104917;28;20020;-63
2023/02/12 08:57:36;;;;;;;;;;;;;;;6.54;86.72;103269.16;4104897;28;19980;-61
2023/02/12 08:59:38;;;;;;;;;;;;;;;6.54;86.70;103264.63;4106112;28;19934;-63
2023/02/12 09:01:40;;;;;;;;;;;;;;;6.54;86.73;103267.31;4105588;28;20013;-63
2023/02/12 09:03:42;;;;;;;;;;;;;;;6.55;86.76;103268.16;4105579;28;20030;-63
2023/02/12 09:05:46;;;;;;;;;;;;;;;6.56;86.54;103269.91;4104590;28;20047;-64
2023/02/12 09:07:48;;;;;;;;;;;;;;;6.56;86.92;103277.97;4105111;28;20025;-64
2023/02/12 09:09:50;;;;;;;;;;;;;;;6.56;86.77;103270.75;4105231;28;20021;-64
2023/02/12 09:11:52;;;;;;;;;;;;;;;6.55;86.30;103269.06;4103872;28;20421;-63
2023/02/12 09:13:53;;;;;;;;;;;;;;;6.56;86.54;103268.06;4104451;28;20017;-63
2023/02/12 09:15:55;;;;;;;;;;;;;;;6.56;86.50;103273.44;4102355;28;19931;-63
2023/02/12 09:17:59;;;;;;;;;;;;;;;6.57;86.52;103277.88;4105846;28;20017;-63
2023/02/12 09:20:01;;;;;;;;;;;;;;;6.59;86.16;103283.16;4103855;28;19930;-64
2023/02/12 09:22:04;;;;;;;;;;;;;;;6.58;86.15;103279.63;4104691;28;20021;-64
2023/02/12 09:24:06;;;;;;;;;;;;;;;6.58;85.89;103285.00;4103523;28;20037;-65
2023/02/12 09:26:09;;;;;;;;;;;;;;;6.61;86.12;103291.97;4103343;28;20356;-65
2023/02/12 09:28:12;;;;;;;;;;;;;;;6.60;86.34;103293.81;4104308;28;20686;-65
2023/02/12 09:30:14;;;;;;;;;;;;;;;6.61;85.96;103292.84;4105015;28;20017;-65
2023/02/12 09:32:16;;;;;;;;;;;;;;;6.62;86.05;103301.78;4104601;28;20028;-65
2023/02/12 09:34:18;;;;;;;;;;;;;;;6.63;86.12;103306.19;4103866;28;20033;-65
2023/02/12 09:36:20;;;;;;;;;;;;;;;6.62;85.98;103297.25;4105316;28;20433;-65
2023/02/12 09:38:23;;;;;;;;;;;;;;;6.63;85.95;103300.81;4105700;28;20704;-65
2023/02/12 09:40:26;;;;;;;;;;;;;;;6.64;86.18;103306.09;4103648;28;20020;-66
2023/02/12 09:42:31;;;;;;;;;;;;;;;6.64;85.75;103300.72;4101931;28;20042;-64
2023/02/12 09:44:34;;;;;;;;;;;;;;;6.64;85.66;103302.56;4104190;28;20020;-64
2023/02/12 09:46:37;;;;;;;;;;;;;;;6.65;86.07;103299.78;4104195;28;20035;-64
2023/02/12 09:48:43;;;;;;;;;;;;;;;6.67;85.85;103305.06;4103739;28;20379;-65
2023/02/12 09:50:47;;;;;;;;;;;;;;;6.66;85.80;103308.69;4100840;28;20018;-65
2023/02/12 09:52:49;;;;;;;;;;;;;;;6.67;85.67;103310.44;4103430;28;20349;-66
2023/02/12 09:54:52;;;;;;;;;;;;;;;6.68;86.06;103306.81;4102928;28;20013;-64
2023/02/12 09:56:55;;;;;;;;;;;;;;;6.68;85.79;103307.66;4103611;28;20024;-65
2023/02/12 09:58:59;;;;;;;;;;;;;;;6.68;85.96;103309.50;4103066;28;20013;-67
2023/02/12 10:01:01;;;;;;;;;;;;;;;6.69;86.00;103311.19;4102498;28;20029;-65
2023/02/12 10:03:04;;;;;;;;;;;;;;;6.68;85.58;103309.50;4102656;28;20017;-66
2023/02/12 10:05:06;;;;;;;;;;;;;;;6.71;85.72;103308.44;4102587;28;20021;-64
2023/02/12 10:07:11;;;;;;;;;;;;;;;6.71;85.56;103312.00;4106208;28;20060;-65
2023/02/12 10:09:29;;;;;;;;;;;;;;;6.71;85.51;103303.94;4104360;28;20034;-64
2023/02/12 10:11:35;;;;;;;;;;;;;;;6.73;85.60;103306.53;4101419;28;20006;-64
2023/02/12 10:13:39;;;;;;;;;;;;;;;6.74;85.86;103305.56;4105057;28;20021;-64
2023/02/12 10:15:42;;;;;;;;;;;;;;;6.76;85.80;103309.03;4105907;28;20376;-64
2023/02/12 10:17:47;;;;;;;;;;;;;;;6.76;85.74;103307.22;4105360;28;20021;-65
2023/02/12 10:20:07;;;;;;;;;;;;;;;6.77;85.83;103308.06;4104743;28;20021;-65
2023/02/12 10:22:10;;;;;;;;;;;;;;;6.77;85.49;103303.59;4105098;28;20469;-65
2023/02/12 10:24:17;;;;;;;;;;;;;;;6.77;85.89;103302.69;4105062;28;20468;-65
2023/02/12 10:26:21;;;;;;;;;;;;;;;6.78;85.64;103307.97;4105212;28;20021;-65
2023/02/12 10:28:25;;;;;;;;;;;;;;;6.79;85.74;103306.19;4104682;28;20359;-64
2023/02/12 10:30:29;;;;;;;;;;;;;;;6.80;85.75;103307.91;4103380;28;20025;-64
2023/02/12 10:32:31;;;;;;;;;;;;;;;6.79;85.65;103307.03;4105098;28;20472;-65
2023/02/12 10:34:34;;;;;;;;;;;;;;;6.80;85.22;103305.22;4107198;28;20045;-65
2023/02/12 10:36:38;;;;;;;;;;;;;;;6.80;85.39;103307.91;4104629;28;20032;-65
2023/02/12 10:38:40;;;;;;;;;;;;;;;6.83;85.76;103310.41;4104025;28;20030;-66
2023/02/12 10:40:42;;;;;;;;;;;;;;;6.83;85.65;103303.22;4102114;28;20366;-65
2023/02/12 10:42:45;;;;;;;;;;;;;;;6.85;85.47;103306.69;4104347;28;20033;-65